עמוד ראשי
METAR-TAF:

METAR-TAF

שדות תעופה :

Stewart, קולומביה הבריטית, קנדה

קו רוחב: 55-56N, קו אורך: 129-59W, גובה: 7מטר

תצפית מזג אוויר נוכחית

הדו"ח נערך לפני 8 שעות ו 31דקות, בשעה 01:00 UTC
רוח 6קשר מכיוון דרום-מערב, משתנה בין דרום ו מערב/דרום-מערב
טמפרטורת 17 צלסיוס
לחות 63%
לחץ 1010 hPa
ראות: 24.1קילומטר
עננים פזורים בגובה 6000רגל
עננים בינוניים בגובה 8000רגל
עננים בינוניים בגובה 22000רגל

METAR: CZST 240100Z 22006KT 190V250 15SM SCT060 BKN080 BKN220 17/10 A2982 RMK SC3AS3CI1 LAST STFD OBS/NEXT 241300Z/ SLP101 DENSITY ALT 400FT

זמן: 02:31 (09:31 UTC)


TAF: חסר

תצפיות ותחזיות מזג אוויר לגבי יותר מ- 4,000 שדות תעופה ברחבי העולם. דוחות METAR ו- TAF.

התחנות הזמינות מסומנות בנקודות צהובות ואדומות על גבי המפה.

העבר את העכבר לנקודה הצבעונית על מנת לראות את שם התחנה.

לאחר מכן, לחץ כדי לראות את תוכן ואת תחזיות מזג האוויר.

כדי לשנות את המפה: לחץ על הכפתורים הירוקים עם הפלוס השחור כדי להתקרב; על הכפתור הירוק עם המקף כדי להתרחק; או בחיצים הירוקים למפות סמוכות.


METAR-TAF: